Nearby METAR Reports

 

LFSI - St. Dizier/Robin, France
Distance from station: SO 26km
Mise à jour: 06/05/2021 20:30
NOT Current
couvert
couvert
 Wind from ONO
Vent: ONO 13 km/h
Température: 9°C
Wind Chill: 7°C
Point de rosée: 7°C
Humidité: 87%
Baromètre: 1007 hPa
Clouds: couvert
Visibility: 10 km
Cloud details: couvert 1006 m
2021/05/06 18:30 LFSI 061830Z AUTO 30007KT 9999 OVC033 09/07 Q1007
LFSO - Nancy/Ochey (faf, France
Distance from station: ESE 62km
Mise à jour: 06/05/2021 20:30
NOT Current
couvert
couvert
 Wind from O
Vent: O 28 km/h
Température: 9°C
Wind Chill: 6°C
Point de rosée: 7°C
Humidité: 87%
Baromètre: 1006 hPa
Clouds: couvert
Visibility: 10 km
Cloud details: nuageux 549 m
couvert 732 m
2021/05/06 18:30 LFSO 061830Z AUTO 28015KT 9999 BKN018 OVC024 09/07 Q1006 BECMG 20010G20KT RA BKN010 BKN020
LFOK - Chalons/Vatry Fa, France
Distance from station: O 73km
Mise à jour: 07/05/2021 01:00
Thunderstorm
Thunderstorm
 Wind from NO
Vent: NO 6 km/h
Température: 7°C
Point de rosée: 6°C
Humidité: 93%
Baromètre: 1010 hPa
Clouds: Thunderstorm
Visibility: 10 km
Cloud details: couvert 945 m
2021/05/06 23:00 LFOK 062300Z AUTO 32003KT 9999 OVC031/// ///TCU 07/06 Q1010 BECMG 3000 BR BKN020
 
LFSN - Nancy/Essey, France
Distance from station: E 77km
Mise à jour: 07/05/2021 01:00
couvert
couvert
 Wind from OSO
Vent: OSO 6 km/h
Température: 8°C
Point de rosée: 6°C
Humidité: 87%
Baromètre: 1009 hPa
Clouds: couvert
Visibility: 10 km
Cloud details: couvert 518 m
2021/05/06 23:00 LFSN 062300Z AUTO 25003KT 210V290 9999 OVC017 08/06 Q1009
LFSG - Epinal/Mirecourt, France
Distance from station: SE 81km
Mise à jour: 07/05/2021 01:00
pluie légère, Thunderstorm
pluie légère, Thunderstorm
 Wind from SO
Vent: SO 9 km/h
Température: 7°C
Wind Chill: 6°C
Point de rosée: 6°C
Humidité: 93%
Baromètre: 1009 hPa
Résumé: pluie légère
Clouds: Thunderstorm
Visibility: 10 km
Cloud details: nuageux 488 m
nuageux 975 m
couvert 1768 m
2021/05/06 23:00 LFSG 062300Z AUTO 22005KT 9999 -RA BKN016/// BKN032/// OVC058/// ///TCU 07/06 Q1009
LFJL - Metz-Nancy-Lorra, France
Distance from station: ENE 82km
Mise à jour: 07/05/2021 01:00
couvert
couvert
 Wind from O
Vent: O 11 km/h
Température: 7°C
Wind Chill: 5°C
Point de rosée: 5°C
Humidité: 87%
Baromètre: 1009 hPa
Clouds: couvert
Visibility: 10 km
Cloud details: nuageux 1341 m
couvert 1524 m
2021/05/06 23:00 LFJL 062300Z AUTO 26006KT 9999 BKN044 OVC050 07/05 Q1009 TEMPO 4000 -SHRA BKN008 FEW020TCU
 
LFQA - Reims/Prunay, France
Distance from station: ONO 89km
Mise à jour: 07/05/2021 01:00
couvert
couvert
 Wind from NNO
Vent: NNO 11 km/h
Température: 7°C
Wind Chill: 5°C
Point de rosée: 6°C
Humidité: 93%
Baromètre: 1010 hPa
Clouds: couvert
Visibility: 10 km
Cloud details: Few Clouds 884 m
couvert 1463 m
2021/05/06 23:00 LFQA 062300Z AUTO 33006KT 9999 FEW029 OVC048 07/06 Q1010
LFQB - Troyes/Barberey, France
Distance from station: OSO 99km
Mise à jour: 07/05/2021 01:00
pluie légère, Mist, Thunderstorm
pluie légère, Mist, Thunderstorm
 Wind from SO
Vent: SO 4 km/h
Température: 9°C
Point de rosée: 8°C
Humidité: 94%
Baromètre: 1010 hPa
Résumé: pluie légère, Mist
Clouds: Thunderstorm
Visibility: 5 km
Cloud details: Few Clouds 488 m
couvert 671 m
2021/05/06 23:00 LFQB 062300Z AUTO 22002KT 5000 -RA BR FEW016/// OVC022/// ///TCU 09/08 Q1010